sensor_id;sensor_type;location;lat;lon;timestamp;P1;durP1;ratioP1;P2;durP2;ratioP2
7193;SDS011;3638;48.820;9.244;2022-10-16T00:01:14;2.85;;;2.58;;
7193;SDS011;3638;48.820;9.244;2022-10-16T00:03:46;5.30;;;2.83;;
7193;SDS011;3638;48.820;9.244;2022-10-16T00:06:14;4.85;;;2.55;;
7193;SDS011;3638;48.820;9.244;2022-10-16T00:08:44;5.30;;;2.53;;
7193;SDS011;3638;48.820;9.244;2022-10-16T00:11:12;5.25;;;2.65;;
7193;SDS011;3638;48.820;9.244;2022-10-16T00:13:42;3.72;;;2.63;;
7193;SDS011;3638;48.820;9.244;2022-10-16T00:16:11;2.75;;;2.55;;
7193;SDS011;3638;48.820;9.244;2022-10-16T00:18:40;3.00;;;2.25;;
7193;SDS011;3638;48.820;9.244;2022-10-16T00:21:10;5.03;;;2.50;;
7193;SDS011;3638;48.820;9.244;2022-10-16T00:23:40;4.03;;;2.58;;
7193;SDS011;3638;48.820;9.244;2022-10-16T00:26:08;2.67;;;2.38;;
7193;SDS011;3638;48.820;9.244;2022-10-16T00:28:37;3.20;;;2.42;;
7193;SDS011;3638;48.820;9.244;2022-10-16T00:31:06;4.60;;;2.50;;
7193;SDS011;3638;48.820;9.244;2022-10-16T00:33:35;2.67;;;2.40;;
7193;SDS011;3638;48.820;9.244;2022-10-16T00:36:06;4.22;;;2.83;;
7193;SDS011;3638;48.820;9.244;2022-10-16T00:38:36;5.82;;;2.80;;
7193;SDS011;3638;48.820;9.244;2022-10-16T00:41:03;2.85;;;2.40;;
7193;SDS011;3638;48.820;9.244;2022-10-16T00:43:36;6.10;;;2.50;;
7193;SDS011;3638;48.820;9.244;2022-10-16T00:46:09;3.58;;;2.83;;
7193;SDS011;3638;48.820;9.244;2022-10-16T00:48:42;3.38;;;2.58;;
7193;SDS011;3638;48.820;9.244;2022-10-16T00:51:18;4.65;;;2.60;;
7193;SDS011;3638;48.820;9.244;2022-10-16T00:53:48;4.10;;;2.60;;
7193;SDS011;3638;48.820;9.244;2022-10-16T00:56:15;3.77;;;2.60;;
7193;SDS011;3638;48.820;9.244;2022-10-16T00:58:43;4.03;;;2.58;;
7193;SDS011;3638;48.820;9.244;2022-10-16T01:01:10;3.78;;;3.00;;
7193;SDS011;3638;48.820;9.244;2022-10-16T01:03:37;3.47;;;2.67;;
7193;SDS011;3638;48.820;9.244;2022-10-16T01:06:07;4.82;;;2.90;;
7193;SDS011;3638;48.820;9.244;2022-10-16T01:08:53;4.47;;;3.37;;
7193;SDS011;3638;48.820;9.244;2022-10-16T01:11:37;4.72;;;3.00;;
7193;SDS011;3638;48.820;9.244;2022-10-16T01:14:11;3.58;;;2.90;;
7193;SDS011;3638;48.820;9.244;2022-10-16T01:16:49;5.40;;;2.77;;
7193;SDS011;3638;48.820;9.244;2022-10-16T01:19:26;4.53;;;2.90;;
7193;SDS011;3638;48.820;9.244;2022-10-16T01:22:11;3.35;;;2.78;;
7193;SDS011;3638;48.820;9.244;2022-10-16T01:24:40;3.80;;;3.15;;
7193;SDS011;3638;48.820;9.244;2022-10-16T01:27:13;6.25;;;3.25;;
7193;SDS011;3638;48.820;9.244;2022-10-16T01:29:48;4.72;;;2.90;;
7193;SDS011;3638;48.820;9.244;2022-10-16T01:32:21;4.55;;;2.92;;
7193;SDS011;3638;48.820;9.244;2022-10-16T01:34:56;3.85;;;2.78;;
7193;SDS011;3638;48.820;9.244;2022-10-16T01:37:32;2.88;;;2.55;;
7193;SDS011;3638;48.820;9.244;2022-10-16T01:40:05;4.47;;;2.72;;
7193;SDS011;3638;48.820;9.244;2022-10-16T01:42:37;3.70;;;2.65;;
7193;SDS011;3638;48.820;9.244;2022-10-16T01:45:07;3.40;;;2.92;;
7193;SDS011;3638;48.820;9.244;2022-10-16T01:47:39;7.70;;;2.80;;
7193;SDS011;3638;48.820;9.244;2022-10-16T01:50:08;2.88;;;2.60;;
7193;SDS011;3638;48.820;9.244;2022-10-16T01:52:37;5.55;;;2.90;;
7193;SDS011;3638;48.820;9.244;2022-10-16T01:55:08;6.43;;;2.53;;
7193;SDS011;3638;48.820;9.244;2022-10-16T01:57:38;3.92;;;2.72;;
7193;SDS011;3638;48.820;9.244;2022-10-16T02:00:10;3.00;;;2.60;;
7193;SDS011;3638;48.820;9.244;2022-10-16T02:02:39;3.42;;;2.80;;
7193;SDS011;3638;48.820;9.244;2022-10-16T02:05:12;3.75;;;3.08;;
7193;SDS011;3638;48.820;9.244;2022-10-16T02:07:45;3.70;;;2.95;;
7193;SDS011;3638;48.820;9.244;2022-10-16T02:10:12;4.05;;;3.10;;
7193;SDS011;3638;48.820;9.244;2022-10-16T02:12:40;3.05;;;2.75;;
7193;SDS011;3638;48.820;9.244;2022-10-16T02:15:13;3.47;;;3.10;;
7193;SDS011;3638;48.820;9.244;2022-10-16T02:17:40;3.88;;;2.78;;
7193;SDS011;3638;48.820;9.244;2022-10-16T02:20:07;3.38;;;2.60;;
7193;SDS011;3638;48.820;9.244;2022-10-16T02:22:36;3.83;;;2.80;;
7193;SDS011;3638;48.820;9.244;2022-10-16T02:25:08;3.78;;;2.67;;
7193;SDS011;3638;48.820;9.244;2022-10-16T02:27:40;3.63;;;3.03;;
7193;SDS011;3638;48.820;9.244;2022-10-16T02:30:16;4.55;;;3.05;;
7193;SDS011;3638;48.820;9.244;2022-10-16T02:32:50;3.03;;;2.78;;
7193;SDS011;3638;48.820;9.244;2022-10-16T02:35:18;4.25;;;2.83;;
7193;SDS011;3638;48.820;9.244;2022-10-16T02:37:47;3.55;;;2.75;;
7193;SDS011;3638;48.820;9.244;2022-10-16T02:40:16;4.65;;;2.90;;
7193;SDS011;3638;48.820;9.244;2022-10-16T02:42:49;4.32;;;3.10;;
7193;SDS011;3638;48.820;9.244;2022-10-16T02:45:17;4.43;;;2.95;;
7193;SDS011;3638;48.820;9.244;2022-10-16T02:47:45;4.30;;;2.63;;
7193;SDS011;3638;48.820;9.244;2022-10-16T02:50:12;3.40;;;3.10;;
7193;SDS011;3638;48.820;9.244;2022-10-16T02:52:39;4.18;;;2.90;;
7193;SDS011;3638;48.820;9.244;2022-10-16T02:55:06;3.55;;;2.78;;
7193;SDS011;3638;48.820;9.244;2022-10-16T02:57:33;5.13;;;2.80;;
7193;SDS011;3638;48.820;9.244;2022-10-16T03:00:03;4.97;;;2.90;;
7193;SDS011;3638;48.820;9.244;2022-10-16T03:02:31;3.13;;;2.67;;
7193;SDS011;3638;48.820;9.244;2022-10-16T03:04:58;4.88;;;2.80;;
7193;SDS011;3638;48.820;9.244;2022-10-16T03:07:25;3.37;;;2.70;;
7193;SDS011;3638;48.820;9.244;2022-10-16T03:09:52;3.47;;;2.60;;
7193;SDS011;3638;48.820;9.244;2022-10-16T03:12:19;3.40;;;2.90;;
7193;SDS011;3638;48.820;9.244;2022-10-16T03:14:46;4.82;;;2.60;;
7193;SDS011;3638;48.820;9.244;2022-10-16T03:17:15;3.15;;;2.60;;
7193;SDS011;3638;48.820;9.244;2022-10-16T03:19:42;5.00;;;2.90;;
7193;SDS011;3638;48.820;9.244;2022-10-16T03:22:09;4.20;;;2.80;;
7193;SDS011;3638;48.820;9.244;2022-10-16T03:24:36;2.88;;;2.40;;
7193;SDS011;3638;48.820;9.244;2022-10-16T03:27:03;3.30;;;2.55;;
7193;SDS011;3638;48.820;9.244;2022-10-16T03:29:30;5.57;;;2.53;;
7193;SDS011;3638;48.820;9.244;2022-10-16T03:31:58;2.90;;;2.33;;
7193;SDS011;3638;48.820;9.244;2022-10-16T03:34:26;4.85;;;2.70;;
7193;SDS011;3638;48.820;9.244;2022-10-16T03:36:53;4.28;;;2.47;;
7193;SDS011;3638;48.820;9.244;2022-10-16T03:39:20;5.35;;;3.15;;
7193;SDS011;3638;48.820;9.244;2022-10-16T03:41:47;4.05;;;2.50;;
7193;SDS011;3638;48.820;9.244;2022-10-16T03:44:14;3.10;;;2.80;;
7193;SDS011;3638;48.820;9.244;2022-10-16T03:46:41;4.70;;;2.50;;
7193;SDS011;3638;48.820;9.244;2022-10-16T03:49:08;2.50;;;2.30;;
7193;SDS011;3638;48.820;9.244;2022-10-16T03:51:36;2.53;;;2.33;;
7193;SDS011;3638;48.820;9.244;2022-10-16T03:54:03;2.70;;;2.47;;
7193;SDS011;3638;48.820;9.244;2022-10-16T03:56:30;5.30;;;2.30;;
7193;SDS011;3638;48.820;9.244;2022-10-16T03:58:57;2.90;;;2.33;;
7193;SDS011;3638;48.820;9.244;2022-10-16T04:01:24;4.68;;;2.60;;
7193;SDS011;3638;48.820;9.244;2022-10-16T04:03:51;2.80;;;2.60;;
7193;SDS011;3638;48.820;9.244;2022-10-16T04:06:18;2.80;;;2.33;;
7193;SDS011;3638;48.820;9.244;2022-10-16T04:08:46;4.80;;;2.33;;
7193;SDS011;3638;48.820;9.244;2022-10-16T04:11:13;2.40;;;2.20;;
7193;SDS011;3638;48.820;9.244;2022-10-16T04:13:40;3.08;;;2.25;;
7193;SDS011;3638;48.820;9.244;2022-10-16T04:16:07;4.05;;;2.42;;
7193;SDS011;3638;48.820;9.244;2022-10-16T04:18:34;3.70;;;2.50;;
7193;SDS011;3638;48.820;9.244;2022-10-16T04:21:04;2.72;;;2.40;;
7193;SDS011;3638;48.820;9.244;2022-10-16T04:23:32;2.90;;;2.60;;
7193;SDS011;3638;48.820;9.244;2022-10-16T04:26:00;4.82;;;2.65;;
7193;SDS011;3638;48.820;9.244;2022-10-16T04:28:27;2.50;;;2.17;;
7193;SDS011;3638;48.820;9.244;2022-10-16T04:30:55;3.83;;;2.22;;
7193;SDS011;3638;48.820;9.244;2022-10-16T04:33:22;2.40;;;2.20;;
7193;SDS011;3638;48.820;9.244;2022-10-16T04:35:55;5.28;;;2.40;;
7193;SDS011;3638;48.820;9.244;2022-10-16T04:38:23;2.40;;;2.10;;
7193;SDS011;3638;48.820;9.244;2022-10-16T04:40:50;2.28;;;2.08;;
7193;SDS011;3638;48.820;9.244;2022-10-16T04:43:19;2.45;;;1.90;;
7193;SDS011;3638;48.820;9.244;2022-10-16T04:45:47;3.92;;;2.13;;
7193;SDS011;3638;48.820;9.244;2022-10-16T04:48:15;4.45;;;2.20;;
7193;SDS011;3638;48.820;9.244;2022-10-16T04:50:42;3.25;;;2.53;;
7193;SDS011;3638;48.820;9.244;2022-10-16T04:53:09;2.95;;;2.00;;
7193;SDS011;3638;48.820;9.244;2022-10-16T04:55:36;4.35;;;2.10;;
7193;SDS011;3638;48.820;9.244;2022-10-16T04:58:03;2.45;;;1.98;;
7193;SDS011;3638;48.820;9.244;2022-10-16T05:00:32;2.05;;;1.83;;
7193;SDS011;3638;48.820;9.244;2022-10-16T05:02:59;3.42;;;2.10;;
7193;SDS011;3638;48.820;9.244;2022-10-16T05:05:26;2.90;;;2.17;;
7193;SDS011;3638;48.820;9.244;2022-10-16T05:07:53;3.28;;;2.10;;
7193;SDS011;3638;48.820;9.244;2022-10-16T05:10:20;2.65;;;2.30;;
7193;SDS011;3638;48.820;9.244;2022-10-16T05:12:47;2.70;;;2.10;;
7193;SDS011;3638;48.820;9.244;2022-10-16T05:15:14;3.20;;;2.40;;
7193;SDS011;3638;48.820;9.244;2022-10-16T05:17:43;4.03;;;2.55;;
7193;SDS011;3638;48.820;9.244;2022-10-16T05:20:12;2.33;;;2.13;;
7193;SDS011;3638;48.820;9.244;2022-10-16T05:22:46;2.60;;;2.40;;
7193;SDS011;3638;48.820;9.244;2022-10-16T05:25:13;2.40;;;2.20;;
7193;SDS011;3638;48.820;9.244;2022-10-16T05:27:40;3.27;;;2.20;;
7193;SDS011;3638;48.820;9.244;2022-10-16T05:30:07;2.70;;;2.50;;
7193;SDS011;3638;48.820;9.244;2022-10-16T05:32:35;4.80;;;2.83;;
7193;SDS011;3638;48.820;9.244;2022-10-16T05:35:04;3.28;;;2.58;;
7193;SDS011;3638;48.820;9.244;2022-10-16T05:37:31;5.97;;;2.80;;
7193;SDS011;3638;48.820;9.244;2022-10-16T05:39:58;4.67;;;3.10;;
7193;SDS011;3638;48.820;9.244;2022-10-16T05:42:25;2.90;;;2.70;;
7193;SDS011;3638;48.820;9.244;2022-10-16T05:44:52;3.00;;;2.38;;
7193;SDS011;3638;48.820;9.244;2022-10-16T05:47:19;2.28;;;2.15;;
7193;SDS011;3638;48.820;9.244;2022-10-16T05:49:46;2.83;;;2.30;;
7193;SDS011;3638;48.820;9.244;2022-10-16T05:52:15;2.53;;;2.33;;
7193;SDS011;3638;48.820;9.244;2022-10-16T05:54:42;5.55;;;2.40;;
7193;SDS011;3638;48.820;9.244;2022-10-16T05:57:09;2.92;;;2.60;;
7193;SDS011;3638;48.820;9.244;2022-10-16T05:59:36;3.57;;;2.20;;
7193;SDS011;3638;48.820;9.244;2022-10-16T06:02:03;2.40;;;2.20;;
7193;SDS011;3638;48.820;9.244;2022-10-16T06:04:30;3.58;;;2.63;;
7193;SDS011;3638;48.820;9.244;2022-10-16T06:06:57;3.25;;;2.42;;
7193;SDS011;3638;48.820;9.244;2022-10-16T06:09:27;2.70;;;2.50;;
7193;SDS011;3638;48.820;9.244;2022-10-16T06:11:54;3.93;;;2.40;;
7193;SDS011;3638;48.820;9.244;2022-10-16T06:14:21;4.63;;;2.50;;
7193;SDS011;3638;48.820;9.244;2022-10-16T06:16:48;4.00;;;2.57;;
7193;SDS011;3638;48.820;9.244;2022-10-16T06:19:15;2.55;;;2.28;;
7193;SDS011;3638;48.820;9.244;2022-10-16T06:21:42;4.05;;;2.70;;
7193;SDS011;3638;48.820;9.244;2022-10-16T06:24:09;6.30;;;2.47;;
7193;SDS011;3638;48.820;9.244;2022-10-16T06:26:38;3.88;;;2.53;;
7193;SDS011;3638;48.820;9.244;2022-10-16T06:29:05;4.10;;;2.78;;
7193;SDS011;3638;48.820;9.244;2022-10-16T06:31:32;3.50;;;2.65;;
7193;SDS011;3638;48.820;9.244;2022-10-16T06:33:59;4.68;;;2.30;;
7193;SDS011;3638;48.820;9.244;2022-10-16T06:36:27;2.90;;;2.40;;
7193;SDS011;3638;48.820;9.244;2022-10-16T06:38:54;6.05;;;2.65;;
7193;SDS011;3638;48.820;9.244;2022-10-16T06:41:21;3.08;;;2.47;;
7193;SDS011;3638;48.820;9.244;2022-10-16T06:43:50;2.60;;;2.40;;
7193;SDS011;3638;48.820;9.244;2022-10-16T06:46:19;3.83;;;2.80;;
7193;SDS011;3638;48.820;9.244;2022-10-16T06:48:48;4.20;;;2.47;;
7193;SDS011;3638;48.820;9.244;2022-10-16T06:51:16;2.90;;;2.58;;
7193;SDS011;3638;48.820;9.244;2022-10-16T06:53:45;3.58;;;2.33;;
7193;SDS011;3638;48.820;9.244;2022-10-16T06:56:14;2.83;;;2.30;;
7193;SDS011;3638;48.820;9.244;2022-10-16T06:58:43;2.67;;;2.28;;
7193;SDS011;3638;48.820;9.244;2022-10-16T07:01:12;5.13;;;2.65;;
7193;SDS011;3638;48.820;9.244;2022-10-16T07:03:41;4.03;;;2.30;;
7193;SDS011;3638;48.820;9.244;2022-10-16T07:06:10;4.00;;;2.33;;
7193;SDS011;3638;48.820;9.244;2022-10-16T07:08:41;2.75;;;2.13;;
7193;SDS011;3638;48.820;9.244;2022-10-16T07:11:10;3.63;;;2.78;;
7193;SDS011;3638;48.820;9.244;2022-10-16T07:13:40;4.75;;;2.40;;
7193;SDS011;3638;48.820;9.244;2022-10-16T07:16:09;9.85;;;2.90;;
7193;SDS011;3638;48.820;9.244;2022-10-16T07:18:39;5.60;;;2.83;;
7193;SDS011;3638;48.820;9.244;2022-10-16T07:21:08;6.50;;;2.72;;
7193;SDS011;3638;48.820;9.244;2022-10-16T07:23:37;5.13;;;2.55;;
7193;SDS011;3638;48.820;9.244;2022-10-16T07:26:05;3.38;;;2.50;;
7193;SDS011;3638;48.820;9.244;2022-10-16T07:28:33;3.50;;;2.60;;
7193;SDS011;3638;48.820;9.244;2022-10-16T07:31:00;2.60;;;2.28;;
7193;SDS011;3638;48.820;9.244;2022-10-16T07:33:34;4.78;;;2.53;;
7193;SDS011;3638;48.820;9.244;2022-10-16T07:36:01;4.28;;;2.38;;
7193;SDS011;3638;48.820;9.244;2022-10-16T07:38:29;3.40;;;2.40;;
7193;SDS011;3638;48.820;9.244;2022-10-16T07:40:56;4.22;;;2.15;;
7193;SDS011;3638;48.820;9.244;2022-10-16T07:43:24;3.75;;;2.00;;
7193;SDS011;3638;48.820;9.244;2022-10-16T07:45:52;5.38;;;2.60;;
7193;SDS011;3638;48.820;9.244;2022-10-16T07:48:20;2.92;;;2.40;;
7193;SDS011;3638;48.820;9.244;2022-10-16T07:50:49;5.68;;;2.22;;
7193;SDS011;3638;48.820;9.244;2022-10-16T07:53:16;2.63;;;2.40;;
7193;SDS011;3638;48.820;9.244;2022-10-16T07:55:43;3.00;;;2.58;;
7193;SDS011;3638;48.820;9.244;2022-10-16T07:58:10;3.53;;;3.03;;
7193;SDS011;3638;48.820;9.244;2022-10-16T08:00:37;3.30;;;3.00;;
7193;SDS011;3638;48.820;9.244;2022-10-16T08:03:04;5.07;;;2.92;;
7193;SDS011;3638;48.820;9.244;2022-10-16T08:05:31;3.53;;;2.95;;
7193;SDS011;3638;48.820;9.244;2022-10-16T08:08:01;2.78;;;2.47;;
7193;SDS011;3638;48.820;9.244;2022-10-16T08:10:28;2.58;;;2.20;;
7193;SDS011;3638;48.820;9.244;2022-10-16T08:12:56;2.63;;;2.42;;
7193;SDS011;3638;48.820;9.244;2022-10-16T08:15:23;3.45;;;2.20;;
7193;SDS011;3638;48.820;9.244;2022-10-16T08:17:54;3.50;;;2.20;;
7193;SDS011;3638;48.820;9.244;2022-10-16T08:20:23;2.40;;;2.20;;
7193;SDS011;3638;48.820;9.244;2022-10-16T08:22:51;2.30;;;2.10;;
7193;SDS011;3638;48.820;9.244;2022-10-16T08:25:19;5.43;;;2.08;;
7193;SDS011;3638;48.820;9.244;2022-10-16T08:27:47;2.10;;;1.83;;
7193;SDS011;3638;48.820;9.244;2022-10-16T08:30:14;3.42;;;1.80;;
7193;SDS011;3638;48.820;9.244;2022-10-16T08:32:42;2.08;;;1.88;;
7193;SDS011;3638;48.820;9.244;2022-10-16T08:35:10;3.97;;;1.90;;
7193;SDS011;3638;48.820;9.244;2022-10-16T08:37:38;2.42;;;1.80;;
7193;SDS011;3638;48.820;9.244;2022-10-16T08:40:06;2.85;;;1.67;;
7193;SDS011;3638;48.820;9.244;2022-10-16T08:42:47;5.32;;;1.80;;
7193;SDS011;3638;48.820;9.244;2022-10-16T08:45:34;3.60;;;2.22;;
7193;SDS011;3638;48.820;9.244;2022-10-16T08:48:14;4.72;;;1.67;;
7193;SDS011;3638;48.820;9.244;2022-10-16T08:50:49;2.90;;;1.90;;
7193;SDS011;3638;48.820;9.244;2022-10-16T08:53:18;3.28;;;1.70;;
7193;SDS011;3638;48.820;9.244;2022-10-16T08:55:49;2.42;;;1.58;;
7193;SDS011;3638;48.820;9.244;2022-10-16T08:58:20;4.07;;;1.85;;
7193;SDS011;3638;48.820;9.244;2022-10-16T09:00:50;4.85;;;1.92;;
7193;SDS011;3638;48.820;9.244;2022-10-16T09:03:32;4.75;;;2.35;;
7193;SDS011;3638;48.820;9.244;2022-10-16T09:06:25;2.97;;;1.80;;
7193;SDS011;3638;48.820;9.244;2022-10-16T09:09:04;5.63;;;2.10;;
7193;SDS011;3638;48.820;9.244;2022-10-16T09:11:45;3.22;;;1.90;;
7193;SDS011;3638;48.820;9.244;2022-10-16T09:14:35;3.40;;;2.10;;
7193;SDS011;3638;48.820;9.244;2022-10-16T09:17:30;3.05;;;1.85;;
7193;SDS011;3638;48.820;9.244;2022-10-16T09:20:19;1.92;;;1.65;;
7193;SDS011;3638;48.820;9.244;2022-10-16T09:23:00;4.55;;;1.80;;
7193;SDS011;3638;48.820;9.244;2022-10-16T09:25:42;2.95;;;1.98;;
7193;SDS011;3638;48.820;9.244;2022-10-16T09:28:12;3.28;;;1.75;;
7193;SDS011;3638;48.820;9.244;2022-10-16T09:30:42;4.65;;;1.80;;
7193;SDS011;3638;48.820;9.244;2022-10-16T09:33:09;2.92;;;1.90;;
7193;SDS011;3638;48.820;9.244;2022-10-16T09:35:39;3.30;;;1.98;;
7193;SDS011;3638;48.820;9.244;2022-10-16T09:38:08;2.25;;;2.00;;
7193;SDS011;3638;48.820;9.244;2022-10-16T09:40:47;3.80;;;2.08;;
7193;SDS011;3638;48.820;9.244;2022-10-16T09:43:19;2.33;;;2.05;;
7193;SDS011;3638;48.820;9.244;2022-10-16T09:45:55;2.40;;;2.20;;
7193;SDS011;3638;48.820;9.244;2022-10-16T09:48:25;2.78;;;1.73;;
7193;SDS011;3638;48.820;9.244;2022-10-16T09:50:59;4.60;;;1.65;;
7193;SDS011;3638;48.820;9.244;2022-10-16T09:53:41;5.35;;;1.88;;
7193;SDS011;3638;48.820;9.244;2022-10-16T09:56:10;3.80;;;1.80;;
7193;SDS011;3638;48.820;9.244;2022-10-16T09:58:49;2.53;;;2.00;;
7193;SDS011;3638;48.820;9.244;2022-10-16T10:01:18;3.88;;;2.17;;
7193;SDS011;3638;48.820;9.244;2022-10-16T10:03:47;5.93;;;2.00;;
7193;SDS011;3638;48.820;9.244;2022-10-16T10:06:22;4.50;;;1.70;;
7193;SDS011;3638;48.820;9.244;2022-10-16T10:08:52;4.15;;;2.00;;
7193;SDS011;3638;48.820;9.244;2022-10-16T10:11:41;3.15;;;1.70;;
7193;SDS011;3638;48.820;9.244;2022-10-16T10:14:15;3.63;;;1.90;;
7193;SDS011;3638;48.820;9.244;2022-10-16T10:16:51;2.38;;;1.70;;
7193;SDS011;3638;48.820;9.244;2022-10-16T10:19:37;3.38;;;1.88;;
7193;SDS011;3638;48.820;9.244;2022-10-16T10:22:13;1.60;;;1.40;;
7193;SDS011;3638;48.820;9.244;2022-10-16T10:25:15;1.98;;;1.70;;
7193;SDS011;3638;48.820;9.244;2022-10-16T10:28:00;5.88;;;2.00;;
7193;SDS011;3638;48.820;9.244;2022-10-16T10:30:44;2.85;;;1.88;;
7193;SDS011;3638;48.820;9.244;2022-10-16T10:33:25;2.55;;;1.73;;
7193;SDS011;3638;48.820;9.244;2022-10-16T10:36:05;1.65;;;1.55;;
7193;SDS011;3638;48.820;9.244;2022-10-16T10:38:50;1.65;;;1.55;;
7193;SDS011;3638;48.820;9.244;2022-10-16T10:41:27;2.80;;;1.77;;
7193;SDS011;3638;48.820;9.244;2022-10-16T10:44:42;3.20;;;1.73;;
7193;SDS011;3638;48.820;9.244;2022-10-16T10:47:42;1.88;;;1.70;;
7193;SDS011;3638;48.820;9.244;2022-10-16T10:50:24;4.20;;;1.85;;
7193;SDS011;3638;48.820;9.244;2022-10-16T10:52:59;2.60;;;1.80;;
7193;SDS011;3638;48.820;9.244;2022-10-16T10:55:39;7.97;;;2.03;;
7193;SDS011;3638;48.820;9.244;2022-10-16T10:58:19;3.38;;;2.30;;
7193;SDS011;3638;48.820;9.244;2022-10-16T11:01:29;3.30;;;2.45;;
7193;SDS011;3638;48.820;9.244;2022-10-16T11:04:10;3.53;;;2.88;;
7193;SDS011;3638;48.820;9.244;2022-10-16T11:06:57;3.00;;;2.05;;
7193;SDS011;3638;48.820;9.244;2022-10-16T11:09:30;3.95;;;2.00;;
7193;SDS011;3638;48.820;9.244;2022-10-16T11:12:05;4.65;;;1.60;;
7193;SDS011;3638;48.820;9.244;2022-10-16T11:14:40;3.35;;;2.00;;
7193;SDS011;3638;48.820;9.244;2022-10-16T11:17:11;1.70;;;1.60;;
7193;SDS011;3638;48.820;9.244;2022-10-16T11:19:44;5.28;;;1.65;;
7193;SDS011;3638;48.820;9.244;2022-10-16T11:22:16;1.73;;;1.60;;
7193;SDS011;3638;48.820;9.244;2022-10-16T11:24:51;1.70;;;1.60;;
7193;SDS011;3638;48.820;9.244;2022-10-16T11:27:26;2.65;;;1.80;;
7193;SDS011;3638;48.820;9.244;2022-10-16T11:30:01;3.40;;;1.80;;
7193;SDS011;3638;48.820;9.244;2022-10-16T11:32:31;2.47;;;1.75;;
7193;SDS011;3638;48.820;9.244;2022-10-16T11:35:15;3.63;;;1.70;;
7193;SDS011;3638;48.820;9.244;2022-10-16T11:37:49;1.75;;;1.65;;
7193;SDS011;3638;48.820;9.244;2022-10-16T11:40:21;2.00;;;1.70;;
7193;SDS011;3638;48.820;9.244;2022-10-16T11:42:54;2.42;;;1.50;;
7193;SDS011;3638;48.820;9.244;2022-10-16T11:45:32;3.67;;;1.75;;
7193;SDS011;3638;48.820;9.244;2022-10-16T11:48:05;2.72;;;1.70;;
7193;SDS011;3638;48.820;9.244;2022-10-16T11:50:45;3.25;;;1.90;;
7193;SDS011;3638;48.820;9.244;2022-10-16T11:53:23;1.92;;;1.83;;
7193;SDS011;3638;48.820;9.244;2022-10-16T11:56:03;2.58;;;1.83;;
7193;SDS011;3638;48.820;9.244;2022-10-16T11:58:32;3.43;;;1.70;;
7193;SDS011;3638;48.820;9.244;2022-10-16T12:01:10;3.00;;;1.80;;
7193;SDS011;3638;48.820;9.244;2022-10-16T12:03:45;2.80;;;1.77;;
7193;SDS011;3638;48.820;9.244;2022-10-16T12:06:28;2.25;;;1.85;;
7193;SDS011;3638;48.820;9.244;2022-10-16T12:09:02;2.08;;;1.80;;
7193;SDS011;3638;48.820;9.244;2022-10-16T12:11:33;2.42;;;1.42;;
7193;SDS011;3638;48.820;9.244;2022-10-16T12:14:04;1.58;;;1.48;;
7193;SDS011;3638;48.820;9.244;2022-10-16T12:16:50;1.38;;;1.27;;
7193;SDS011;3638;48.820;9.244;2022-10-16T12:19:20;1.92;;;1.50;;
7193;SDS011;3638;48.820;9.244;2022-10-16T12:21:49;2.42;;;1.70;;
7193;SDS011;3638;48.820;9.244;2022-10-16T12:24:27;2.17;;;1.60;;
7193;SDS011;3638;48.820;9.244;2022-10-16T12:27:01;2.22;;;1.85;;
7193;SDS011;3638;48.820;9.244;2022-10-16T12:29:32;3.78;;;1.88;;
7193;SDS011;3638;48.820;9.244;2022-10-16T12:32:02;1.73;;;1.45;;
7193;SDS011;3638;48.820;9.244;2022-10-16T12:34:34;2.65;;;1.70;;
7193;SDS011;3638;48.820;9.244;2022-10-16T12:37:10;2.72;;;1.70;;
7193;SDS011;3638;48.820;9.244;2022-10-16T12:39:42;3.05;;;1.90;;
7193;SDS011;3638;48.820;9.244;2022-10-16T12:42:20;2.38;;;1.52;;
7193;SDS011;3638;48.820;9.244;2022-10-16T12:44:56;2.63;;;1.50;;
7193;SDS011;3638;48.820;9.244;2022-10-16T12:47:34;2.13;;;1.77;;
7193;SDS011;3638;48.820;9.244;2022-10-16T12:53:00;2.42;;;1.80;;
7193;SDS011;3638;48.820;9.244;2022-10-16T12:55:34;4.95;;;2.38;;
7193;SDS011;3638;48.820;9.244;2022-10-16T12:58:22;1.90;;;1.60;;
7193;SDS011;3638;48.820;9.244;2022-10-16T13:01:16;2.65;;;1.80;;
7193;SDS011;3638;48.820;9.244;2022-10-16T13:07:32;6.38;;;1.60;;
7193;SDS011;3638;48.820;9.244;2022-10-16T13:10:15;2.13;;;1.50;;
7193;SDS011;3638;48.820;9.244;2022-10-16T13:12:57;3.33;;;1.58;;
7193;SDS011;3638;48.820;9.244;2022-10-16T13:15:40;5.35;;;1.98;;
7193;SDS011;3638;48.820;9.244;2022-10-16T13:18:33;1.65;;;1.55;;
7193;SDS011;3638;48.820;9.244;2022-10-16T13:21:14;2.22;;;1.55;;
7193;SDS011;3638;48.820;9.244;2022-10-16T13:23:55;2.13;;;1.73;;
7193;SDS011;3638;48.820;9.244;2022-10-16T13:26:31;2.65;;;1.42;;
7193;SDS011;3638;48.820;9.244;2022-10-16T13:29:09;1.98;;;1.63;;
7193;SDS011;3638;48.820;9.244;2022-10-16T13:31:36;2.45;;;1.50;;
7193;SDS011;3638;48.820;9.244;2022-10-16T13:34:05;3.35;;;1.70;;
7193;SDS011;3638;48.820;9.244;2022-10-16T13:36:34;2.53;;;1.60;;
7193;SDS011;3638;48.820;9.244;2022-10-16T13:39:11;2.47;;;1.58;;
7193;SDS011;3638;48.820;9.244;2022-10-16T13:41:42;2.38;;;1.60;;
7193;SDS011;3638;48.820;9.244;2022-10-16T13:44:14;2.35;;;1.90;;
7193;SDS011;3638;48.820;9.244;2022-10-16T13:46:45;1.73;;;1.63;;
7193;SDS011;3638;48.820;9.244;2022-10-16T13:49:13;3.53;;;2.00;;
7193;SDS011;3638;48.820;9.244;2022-10-16T13:51:53;1.83;;;1.60;;
7193;SDS011;3638;48.820;9.244;2022-10-16T13:54:22;1.70;;;1.60;;
7193;SDS011;3638;48.820;9.244;2022-10-16T13:56:49;2.25;;;1.77;;
7193;SDS011;3638;48.820;9.244;2022-10-16T13:59:24;1.90;;;1.80;;
7193;SDS011;3638;48.820;9.244;2022-10-16T14:01:53;2.17;;;1.98;;
7193;SDS011;3638;48.820;9.244;2022-10-16T14:04:23;4.18;;;2.60;;
7193;SDS011;3638;48.820;9.244;2022-10-16T14:06:58;2.88;;;1.85;;
7193;SDS011;3638;48.820;9.244;2022-10-16T14:09:25;2.60;;;2.40;;
7193;SDS011;3638;48.820;9.244;2022-10-16T14:11:55;3.50;;;2.08;;
7193;SDS011;3638;48.820;9.244;2022-10-16T14:14:27;4.05;;;1.70;;
7193;SDS011;3638;48.820;9.244;2022-10-16T14:17:01;4.30;;;1.85;;
7193;SDS011;3638;48.820;9.244;2022-10-16T14:19:29;2.35;;;1.77;;
7193;SDS011;3638;48.820;9.244;2022-10-16T14:21:57;3.53;;;2.15;;
7193;SDS011;3638;48.820;9.244;2022-10-16T14:24:30;2.10;;;1.90;;
7193;SDS011;3638;48.820;9.244;2022-10-16T14:26:59;6.07;;;2.65;;
7193;SDS011;3638;48.820;9.244;2022-10-16T14:29:29;2.10;;;1.90;;
7193;SDS011;3638;48.820;9.244;2022-10-16T14:31:57;4.25;;;2.00;;
7193;SDS011;3638;48.820;9.244;2022-10-16T14:34:26;2.78;;;2.22;;
7193;SDS011;3638;48.820;9.244;2022-10-16T14:36:58;5.18;;;2.83;;
7193;SDS011;3638;48.820;9.244;2022-10-16T14:39:32;3.72;;;2.70;;
7193;SDS011;3638;48.820;9.244;2022-10-16T14:41:59;5.88;;;3.17;;
7193;SDS011;3638;48.820;9.244;2022-10-16T14:44:31;4.85;;;3.20;;
7193;SDS011;3638;48.820;9.244;2022-10-16T14:47:06;5.50;;;3.22;;
7193;SDS011;3638;48.820;9.244;2022-10-16T14:49:35;4.53;;;3.40;;
7193;SDS011;3638;48.820;9.244;2022-10-16T14:52:04;4.65;;;2.97;;
7193;SDS011;3638;48.820;9.244;2022-10-16T14:54:35;4.70;;;2.75;;
7193;SDS011;3638;48.820;9.244;2022-10-16T14:57:02;4.75;;;2.80;;
7193;SDS011;3638;48.820;9.244;2022-10-16T14:59:33;5.63;;;2.20;;
7193;SDS011;3638;48.820;9.244;2022-10-16T15:02:09;2.53;;;2.00;;
7193;SDS011;3638;48.820;9.244;2022-10-16T15:04:47;3.13;;;2.47;;
7193;SDS011;3638;48.820;9.244;2022-10-16T15:07:14;4.63;;;2.20;;
7193;SDS011;3638;48.820;9.244;2022-10-16T15:09:41;4.03;;;2.78;;
7193;SDS011;3638;48.820;9.244;2022-10-16T15:12:08;3.88;;;2.97;;
7193;SDS011;3638;48.820;9.244;2022-10-16T15:14:37;5.30;;;2.75;;
7193;SDS011;3638;48.820;9.244;2022-10-16T15:17:04;4.88;;;2.60;;
7193;SDS011;3638;48.820;9.244;2022-10-16T15:19:31;3.03;;;1.90;;
7193;SDS011;3638;48.820;9.244;2022-10-16T15:21:59;3.08;;;1.98;;
7193;SDS011;3638;48.820;9.244;2022-10-16T15:24:25;3.65;;;2.28;;
7193;SDS011;3638;48.820;9.244;2022-10-16T15:26:52;2.97;;;2.30;;
7193;SDS011;3638;48.820;9.244;2022-10-16T15:29:19;2.92;;;2.15;;
7193;SDS011;3638;48.820;9.244;2022-10-16T15:31:47;2.13;;;1.90;;
7193;SDS011;3638;48.820;9.244;2022-10-16T15:34:15;2.53;;;2.00;;
7193;SDS011;3638;48.820;9.244;2022-10-16T15:36:44;3.17;;;1.98;;
7193;SDS011;3638;48.820;9.244;2022-10-16T15:39:12;3.53;;;2.35;;
7193;SDS011;3638;48.820;9.244;2022-10-16T15:41:41;2.58;;;1.70;;
7193;SDS011;3638;48.820;9.244;2022-10-16T15:44:09;2.10;;;1.90;;
7193;SDS011;3638;48.820;9.244;2022-10-16T15:46:36;4.32;;;2.08;;
7193;SDS011;3638;48.820;9.244;2022-10-16T15:49:04;7.10;;;2.40;;